21/10 --29/10: Fresco, luego ascenso de T, templado a calido (granizo severo Formosa)

Avatar de Usuario
Fedex
Mensajes: 1175
Registrado: Jue Jul 17, 2014 3:30 pm
Ubicación: Villa Ballester, San Martin, Buenos Aires
Contactar:

Re: 21/10 --29/10: Fresco, luego ascenso de T, templado a calido (granizo severo Formosa)

Mensajepor Fedex » Dom Oct 29, 2017 10:31 pm

Fa, cuanto reportes dispares. Por acá buenas ráfagas y granizo bien pequeño, pero lejos de explotar transformadores.

Vamos a ver que dicen los reportes oficiales
El universo tiende al equilibrio

Avatar de Usuario
Seba
Mensajes: 14089
Registrado: Mié Jul 15, 2009 3:31 pm
Ubicación: Palermo, CABA.
Contactar:

Re: 21/10 --29/10: Fresco, luego ascenso de T, templado a calido (granizo severo Formosa)

Mensajepor Seba » Dom Oct 29, 2017 10:31 pm

Tremendo temporal de lluvia, viento y relámpagos en Palermo.
Belleza.
Imagen

Avatar de Usuario
Fedex
Mensajes: 1175
Registrado: Jue Jul 17, 2014 3:30 pm
Ubicación: Villa Ballester, San Martin, Buenos Aires
Contactar:

Re: 21/10 --29/10: Fresco, luego ascenso de T, templado a calido (granizo severo Formosa)

Mensajepor Fedex » Dom Oct 29, 2017 10:32 pm

Aeroparque: Ráfaga 72 km/h
El universo tiende al equilibrio

Avatar de Usuario
mateix
Mensajes: 4495
Registrado: Mié Abr 11, 2012 10:35 am

Re: 21/10 --29/10: Fresco, luego ascenso de T, templado a calido (granizo severo Formosa)

Mensajepor mateix » Dom Oct 29, 2017 10:33 pm

MOTORHOMEMASTER escribió:Desde ya les digo, mucho mas PULENTA esta tormenta que otras anteriores donde hubo alerta previo...


TAL CUAL

Se hizo desear, la verdad.
Pero valió la pena la "histeria" ;)

Hermoso espectáculo el cielo.

Avatar de Usuario
maatii96
Mensajes: 3565
Registrado: Lun Abr 16, 2012 7:07 pm
Ubicación: Ramos Mejía

Re: 21/10 --29/10: Fresco, luego ascenso de T, templado a calido (granizo severo Formosa)

Mensajepor maatii96 » Dom Oct 29, 2017 10:33 pm

Ya aflojó acá, todavía con algunos truenos.

METARs interesantes:

Aeroparque:

METAR SABE 300120Z 26026G39KT 1000 R13/1500 +TSRA OVC020 FEW050CB 17/15 Q1012 =

-Ráfaga de 70 km/h.

Palomar:

SADP 300110Z 27021G41KT 9000 FEW025 FEW040 CB OVC045 21/17 Q1011 =

-Ráfaga de 74 km/h.

Avatar de Usuario
diegotelesa
Mensajes: 934
Registrado: Mié Jul 24, 2013 10:48 pm
Ubicación: Ramos Mejía

Re: 21/10 --29/10: Fresco, luego ascenso de T, templado a calido (granizo severo Formosa)

Mensajepor diegotelesa » Dom Oct 29, 2017 10:34 pm

Acá ahora está moderada la cosa, se ve que la zona norte ligó lo mas grueso de la actividad. Cada tanto se oyen truenos que hacen vibrar los vidrios.

Avatar de Usuario
mateix
Mensajes: 4495
Registrado: Mié Abr 11, 2012 10:35 am

Re: 21/10 --29/10: Fresco, luego ascenso de T, templado a calido (granizo severo Formosa)

Mensajepor mateix » Dom Oct 29, 2017 10:37 pm

Por Palermo continúa el show de luces en el cielo.
Relampagueando a lo pavote.

Hace un minuto un megarelámpago horizontal prácticamente partió el cielo en dos.


Me llama la atención lo alta que se mantiene la T.
22º6 a las 22hs

¿Será que dio el bajón después del registro? Porque afuera se siente el cambio de masa de aire.

Avatar de Usuario
Ezequiel95
Mensajes: 4292
Registrado: Jue Dic 10, 2015 12:33 pm
Ubicación: Marcos Paz, Buenos Aires
Contactar:

Re: 21/10 --29/10: Fresco, luego ascenso de T, templado a calido (granizo severo Formosa)

Mensajepor Ezequiel95 » Dom Oct 29, 2017 10:44 pm

Por acá las ráfagas fueron aún mayores que la del Miércoles de hace un par de semanas, y también vi explotar transformadores, recién vengo de dar una vuelta y hay muchas ramitas y ramas en el piso, e inclusive a la vuelta de mi casa se cayó una rama bien grande sobre un cable y parte de la cuadra no tiene luz.
Hay una línea de tormentas detrás de la linea que pasó recién?

meteocyclone
Mensajes: 58
Registrado: Lun Dic 28, 2015 10:22 pm

Re: 21/10 --29/10: Fresco, luego ascenso de T, templado a calido (granizo severo Formosa)

Mensajepor meteocyclone » Dom Oct 29, 2017 11:26 pm

maatii96 escribió:Ya aflojó acá, todavía con algunos truenos.

METARs interesantes:

Aeroparque:

METAR SABE 300120Z 26026G39KT 1000 R13/1500 +TSRA OVC020 FEW050CB 17/15 Q1012 =

-Ráfaga de 70 km/h.

Palomar:

SADP 300110Z 27021G41KT 9000 FEW025 FEW040 CB OVC045 21/17 Q1011 =

-Ráfaga de 74 km/h.


SAN FERNANDO SPECI RAFAGA DE 80 km/h

PILOTE NORDEN RAFAGAS DE 58 KT (107 KM/H)

EMA EN COLONIA RAFAGAS DE 79 KT (146 KM/H)

Avatar de Usuario
stormchaserAlberto
Mensajes: 7019
Registrado: Jue Feb 20, 2014 2:34 am
Ubicación: Río Tercero,Córdoba.
Contactar:

Re: 21/10 --29/10: Fresco, luego ascenso de T, templado a calido (granizo severo Formosa)

Mensajepor stormchaserAlberto » Dom Oct 29, 2017 11:33 pm

Explotó intenso Chaco. Lástima la ausencia de radar en la zona. Se estarían viendo cosas interesantes. También hay algunas activaciones menores sobre Catamarca y el norte de Córdoba.
Imagen
Me activó algo al sur. Cerca dentro de todo.
Imagen
Dome, dome, dome..The life is a dome


Volver a “Seguimientos Meteorológicos”

¿Quién está conectado?

Usuarios navegando por este Foro: Google [Bot], juandlso, Santiago Linari y 2 invitados